Terminal Aerodrome Forecast
Issued by NWS Wilmington, NC

Home | Current Version | Previous Version | Text Only | Print | Product List | Glossary On
Versions: 1 2 3 4 5 6 7 8 9 10 11 12 13 14 15 16 17 18 19
000
FTUS42 KILM 021200 CCA
TAFFLO
TAF COR
KFLO 021202Z 0212/0312 VRB03KT P6SM SCT003
     FM021400 25005KT P6SM SCT020
     FM021800 20008KT P6SM SCT035
     FM022200 18006KT P6SM VCTS SCT050CB SCT100
     FM030000 20005KT P6SM FEW050 SCT250=

USA.gov is the U.S. government's official web portal to all federal, state and local government web resources and services.